Time;durP1;ratioP1;P1;durP2;ratioP2;P2;SDS_P1;SDS_P2;PMS_P1;PMS_P2;Temp;Humidity;BMP_temperature;BMP_pressure;BME280_temperature;BME280_humidity;BME280_pressure;Samples;Min_cycle;Max_cycle;Signal;HPM_P1;HPM_P2
2023/05/01 00:00:10;;;;;;;;;;;;;;;12.19;62.18;99520.97;4165155;34;34303;-82
2023/05/01 00:02:39;;;;;;;;;;;;;;;12.56;60.37;99523.00;4165083;34;34912;-82
2023/05/01 00:05:08;;;;;;;;;;;;;;;12.19;62.18;99509.66;4165289;34;34558;-83
2023/05/01 00:07:36;;;;;;;;;;;;;;;12.36;61.01;99507.66;4165158;34;33402;-82
2023/05/01 00:10:04;;;;;;;;;;;;;;;11.74;64.18;99507.63;4165125;34;34114;-82
2023/05/01 00:12:32;;;;;;;;;;;;;;;12.26;62.29;99506.06;4141543;34;35633;-82
2023/05/01 00:15:00;;;;;;;;;;;;;;;12.17;61.97;99514.91;4165014;34;35610;-82
2023/05/01 00:17:29;;;;;;;;;;;;;;;12.05;62.31;99512.47;4165073;34;33434;-82
2023/05/01 00:19:58;;;;;;;;;;;;;;;11.80;63.00;99512.75;4164926;34;33779;-82
2023/05/01 00:22:26;;;;;;;;;;;;;;;11.96;62.83;99508.25;4164871;34;35398;-82
2023/05/01 00:24:54;;;;;;;;;;;;;;;11.90;62.74;99508.31;4152092;34;34858;-82
2023/05/01 00:27:22;;;;;;;;;;;;;;;11.60;65.35;99502.59;4165098;34;33479;-82
2023/05/01 00:29:49;;;;;;;;;;;;;;;11.32;67.03;99499.44;4152720;34;34985;-82
2023/05/01 00:32:17;;;;;;;;;;;;;;;11.57;65.26;99500.00;4164897;34;35215;-82
2023/05/01 00:34:47;;;;;;;;;;;;;;;11.26;66.92;99503.00;4164828;34;34697;-82
2023/05/01 00:37:16;;;;;;;;;;;;;;;11.06;66.84;99502.31;4164790;34;33295;-82
2023/05/01 00:39:44;;;;;;;;;;;;;;;10.88;68.34;99495.56;4164919;34;34344;-82
2023/05/01 00:42:12;;;;;;;;;;;;;;;10.84;68.47;99506.91;4164764;34;35430;-82
2023/05/01 00:44:40;;;;;;;;;;;;;;;11.60;63.80;99499.97;4164813;34;35612;-82
2023/05/01 00:47:08;;;;;;;;;;;;;;;11.33;65.66;99503.75;4165066;34;33454;-82
2023/05/01 00:49:36;;;;;;;;;;;;;;;11.13;66.09;99504.84;4164739;34;34956;-82
2023/05/01 00:52:04;;;;;;;;;;;;;;;10.82;69.29;99504.31;4164736;34;36337;-82
2023/05/01 00:54:32;;;;;;;;;;;;;;;10.35;71.37;99506.41;4164821;34;34932;-82
2023/05/01 00:56:59;;;;;;;;;;;;;;;9.83;74.68;99509.31;4164742;34;33404;-81
2023/05/01 00:59:27;;;;;;;;;;;;;;;10.37;73.28;99517.66;4164603;34;34980;-82
2023/05/01 01:01:56;;;;;;;;;;;;;;;10.09;72.98;99505.69;4164630;34;36273;-83
2023/05/01 01:04:24;;;;;;;;;;;;;;;9.27;78.16;99508.66;4141247;34;33596;-83
2023/05/01 01:07:11;;;;;;;;;;;;;;;9.06;80.47;99518.22;4164646;34;33657;-82
2023/05/01 01:09:39;;;;;;;;;;;;;;;9.26;78.70;99510.34;4152467;34;34265;-81
2023/05/01 01:12:07;;;;;;;;;;;;;;;9.10;79.46;99509.53;4164575;34;35485;-82
2023/05/01 01:14:44;;;;;;;;;;;;;;;8.70;82.36;99511.31;4164562;34;34546;-82
2023/05/01 01:17:15;;;;;;;;;;;;;;;8.86;81.83;99513.06;4152407;34;33495;-81
2023/05/01 01:20:05;;;;;;;;;;;;;;;8.42;84.00;99506.16;4164549;34;34186;-82
2023/05/01 01:22:33;;;;;;;;;;;;;;;8.63;82.41;99504.41;4164494;34;35541;-82
2023/05/01 01:25:26;;;;;;;;;;;;;;;8.60;82.69;99500.09;4152084;34;34842;-82
2023/05/01 01:28:13;;;;;;;;;;;;;;;8.70;82.42;99500.94;4152386;34;34461;-82
2023/05/01 01:30:43;;;;;;;;;;;;;;;9.26;79.55;99491.31;4164415;34;34175;-82
2023/05/01 01:33:21;;;;;;;;;;;;;;;9.63;77.39;99497.22;4152075;34;36154;-83
2023/05/01 01:35:56;;;;;;;;;;;;;;;10.05;72.68;99490.09;4165074;34;35562;-82
2023/05/01 01:38:29;;;;;;;;;;;;;;;10.57;69.36;99498.41;4165908;34;33520;-82
2023/05/01 01:41:01;;;;;;;;;;;;;;;10.91;66.00;99492.94;4153829;34;34924;-81
2023/05/01 01:43:32;;;;;;;;;;;;;;;10.60;70.49;99493.19;4165907;34;35193;-82
2023/05/01 01:46:01;;;;;;;;;;;;;;;11.19;65.90;99491.75;4153755;34;34726;-82
2023/05/01 01:48:33;;;;;;;;;;;;;;;11.33;65.10;99496.81;4154038;34;33469;-82
2023/05/01 01:51:03;;;;;;;;;;;;;;;11.56;63.77;99493.94;4142580;34;32943;-82
2023/05/01 01:53:31;;;;;;;;;;;;;;;11.47;64.71;99491.47;4165896;34;34794;-83
2023/05/01 01:55:59;;;;;;;;;;;;;;;11.40;63.42;99492.41;4153882;34;34793;-82
2023/05/01 01:58:30;;;;;;;;;;;;;;;11.48;64.85;99487.94;4154239;34;33290;-82
2023/05/01 02:00:59;;;;;;;;;;;;;;;11.42;65.49;99490.66;4154016;34;34343;-81
2023/05/01 02:03:27;;;;;;;;;;;;;;;11.30;66.64;99501.22;4153941;34;35407;-82
2023/05/01 02:05:55;;;;;;;;;;;;;;;11.06;72.37;99497.13;4153606;34;35416;-82
2023/05/01 02:08:23;;;;;;;;;;;;;;;11.06;71.61;99495.38;4166134;34;33647;-82
2023/05/01 02:10:51;;;;;;;;;;;;;;;11.49;64.81;99500.13;4153640;34;34440;-82
2023/05/01 02:13:18;;;;;;;;;;;;;;;11.62;66.44;99489.53;4153738;34;36100;-81
2023/05/01 02:15:46;;;;;;;;;;;;;;;11.60;68.50;99493.91;4164763;34;34055;-82
2023/05/01 02:18:15;;;;;;;;;;;;;;;11.45;71.72;99492.34;4153398;34;34376;-82
2023/05/01 02:20:43;;;;;;;;;;;;;;;11.14;73.48;99490.94;4165571;34;34098;-82
2023/05/01 02:23:10;;;;;;;;;;;;;;;10.89;74.59;99492.06;4165580;34;35235;-81
2023/05/01 02:25:38;;;;;;;;;;;;;;;10.96;75.52;99492.00;4153747;34;35456;-82
2023/05/01 02:28:08;;;;;;;;;;;;;;;11.06;75.06;99489.28;4153497;34;32293;-82
2023/05/01 02:30:36;;;;;;;;;;;;;;;11.46;71.98;99487.12;4165664;34;34193;-81
2023/05/01 02:33:10;;;;;;;;;;;;;;;11.36;68.53;99485.50;4153549;34;35327;-83
2023/05/01 02:35:39;;;;;;;;;;;;;;;11.46;67.23;99481.03;4165661;34;35439;-82
2023/05/01 02:38:07;;;;;;;;;;;;;;;11.20;73.97;99490.87;4165515;34;33302;-82
2023/05/01 02:40:35;;;;;;;;;;;;;;;11.14;74.76;99493.56;4165640;34;34065;-82
2023/05/01 02:43:04;;;;;;;;;;;;;;;10.92;75.04;99494.66;4153425;34;35109;-81
2023/05/01 02:45:32;;;;;;;;;;;;;;;10.92;76.21;99499.84;4153309;34;34860;-82
2023/05/01 02:48:00;;;;;;;;;;;;;;;10.98;77.82;99494.59;4153097;34;33531;-82
2023/05/01 02:50:28;;;;;;;;;;;;;;;11.43;68.07;99494.97;4165512;34;35049;-82
2023/05/01 02:52:56;;;;;;;;;;;;;;;11.19;74.24;99498.72;4153754;34;35374;-82
2023/05/01 02:55:24;;;;;;;;;;;;;;;11.32;71.83;99499.44;4153389;34;35607;-82
2023/05/01 02:57:52;;;;;;;;;;;;;;;11.53;68.92;99499.19;4153354;34;33440;-82
2023/05/01 03:00:20;;;;;;;;;;;;;;;11.72;67.68;99504.19;4165440;34;33942;-82
2023/05/01 03:02:47;;;;;;;;;;;;;;;11.86;63.87;99507.47;4165380;34;35247;-82
2023/05/01 03:05:15;;;;;;;;;;;;;;;11.82;66.15;99508.38;4153202;34;35557;-82
2023/05/01 03:07:43;;;;;;;;;;;;;;;11.54;69.51;99506.16;4165413;34;33397;-81
2023/05/01 03:10:11;;;;;;;;;;;;;;;11.36;74.25;99514.16;4153535;34;33990;-82
2023/05/01 03:12:39;;;;;;;;;;;;;;;11.50;74.74;99512.25;4165633;34;36166;-81
2023/05/01 03:15:08;;;;;;;;;;;;;;;11.25;76.72;99503.00;4165471;34;34579;-81
2023/05/01 03:17:35;;;;;;;;;;;;;;;11.41;74.79;99512.38;4165434;34;33147;-82
2023/05/01 03:20:08;;;;;;;;;;;;;;;11.58;71.91;99502.59;4165308;34;34985;-82
2023/05/01 03:22:36;;;;;;;;;;;;;;;11.08;73.63;99509.28;4165398;34;35427;-81
2023/05/01 03:25:04;;;;;;;;;;;;;;;11.65;68.32;99503.41;4153087;34;34865;-82
2023/05/01 03:27:31;;;;;;;;;;;;;;;11.94;65.28;99518.69;4165397;34;33424;-81
2023/05/01 03:30:00;;;;;;;;;;;;;;;11.83;64.68;99512.72;4165262;34;35076;-82
2023/05/01 03:32:29;;;;;;;;;;;;;;;11.98;63.68;99514.28;4165495;34;36137;-82
2023/05/01 03:34:56;;;;;;;;;;;;;;;11.87;62.49;99516.16;4164397;34;34191;-81
2023/05/01 03:37:25;;;;;;;;;;;;;;;12.00;61.22;99515.16;4165584;34;33508;-82
2023/05/01 03:39:53;;;;;;;;;;;;;;;12.09;62.20;99515.03;4165459;34;35149;-82
2023/05/01 03:42:24;;;;;;;;;;;;;;;11.97;62.22;99516.94;4165566;34;35445;-82
2023/05/01 03:44:53;;;;;;;;;;;;;;;12.14;60.55;99515.81;4153416;34;34710;-82
2023/05/01 03:47:22;;;;;;;;;;;;;;;12.08;65.16;99522.88;4165423;34;33480;-82
2023/05/01 03:49:50;;;;;;;;;;;;;;;12.31;60.87;99518.16;4165207;34;34183;-82
2023/05/01 03:52:18;;;;;;;;;;;;;;;11.97;64.74;99516.94;4165381;34;35334;-81
2023/05/01 03:54:45;;;;;;;;;;;;;;;12.43;60.35;99518.88;4165216;34;35369;-82
2023/05/01 03:57:14;;;;;;;;;;;;;;;12.52;59.78;99511.75;4153229;34;34343;-81
2023/05/01 03:59:42;;;;;;;;;;;;;;;12.38;60.81;99513.72;4164309;34;35179;-82
2023/05/01 04:02:10;;;;;;;;;;;;;;;12.31;62.06;99514.72;4165277;34;35562;-81
2023/05/01 04:04:38;;;;;;;;;;;;;;;12.57;60.51;99514.31;4165029;34;35523;-82
2023/05/01 04:07:07;;;;;;;;;;;;;;;12.59;59.36;99503.84;4153025;34;34258;-79
2023/05/01 04:09:34;;;;;;;;;;;;;;;12.84;60.49;99515.59;4165086;34;35019;-82
2023/05/01 04:12:03;;;;;;;;;;;;;;;13.05;61.07;99518.72;4165009;34;35061;-81
2023/05/01 04:14:30;;;;;;;;;;;;;;;14.18;57.45;99519.97;4164995;34;35465;-81
2023/05/01 04:16:58;;;;;;;;;;;;;;;15.14;52.07;99510.63;4165249;34;34247;-81
2023/05/01 04:19:26;;;;;;;;;;;;;;;15.81;50.19;99517.56;4165259;34;33950;-82
2023/05/01 04:21:55;;;;;;;;;;;;;;;16.87;48.87;99515.13;4151974;34;35554;-81
2023/05/01 04:24:24;;;;;;;;;;;;;;;16.99;48.33;99518.25;4164007;34;34624;-81
2023/05/01 04:26:53;;;;;;;;;;;;;;;16.53;49.28;99522.38;4163933;34;33558;-81
2023/05/01 04:29:20;;;;;;;;;;;;;;;16.82;46.91;99522.28;4151686;34;34850;-82
2023/05/01 04:31:48;;;;;;;;;;;;;;;16.80;47.75;99528.50;4151642;34;35387;-81
2023/05/01 04:34:16;;;;;;;;;;;;;;;16.73;45.56;99527.84;4164149;34;34755;-81
2023/05/01 04:36:44;;;;;;;;;;;;;;;16.19;46.31;99521.66;4163939;34;33528;-81
2023/05/01 04:39:12;;;;;;;;;;;;;;;16.36;46.33;99529.03;4163723;34;35118;-82
2023/05/01 04:41:40;;;;;;;;;;;;;;;16.78;45.08;99536.47;4163937;34;35424;-81
2023/05/01 04:44:08;;;;;;;;;;;;;;;16.42;45.95;99527.97;4163790;34;35470;-81
2023/05/01 04:46:36;;;;;;;;;;;;;;;16.15;46.42;99534.94;4151634;34;34277;-81
2023/05/01 04:49:04;;;;;;;;;;;;;;;15.79;46.35;99528.09;4163740;34;34365;-81
2023/05/01 04:51:32;;;;;;;;;;;;;;;16.44;46.71;99542.78;4163690;34;36244;-80
2023/05/01 04:54:00;;;;;;;;;;;;;;;16.81;45.80;99538.97;4151301;34;33701;-79
2023/05/01 04:56:28;;;;;;;;;;;;;;;16.38;45.90;99532.47;4163703;34;34037;-81
2023/05/01 04:58:57;;;;;;;;;;;;;;;16.74;47.50;99532.19;4163830;34;35085;-81
2023/05/01 05:01:25;;;;;;;;;;;;;;;16.67;48.33;99538.56;4163846;34;35300;-81
2023/05/01 05:03:53;;;;;;;;;;;;;;;17.42;44.30;99537.81;4163855;34;35369;-81
2023/05/01 05:06:21;;;;;;;;;;;;;;;17.27;46.41;99538.34;4163899;34;34159;-79
2023/05/01 05:08:52;;;;;;;;;;;;;;;17.53;43.74;99538.28;4163706;34;34311;-79
2023/05/01 05:11:20;;;;;;;;;;;;;;;17.45;42.82;99542.94;4163685;34;36039;-81
2023/05/01 05:13:48;;;;;;;;;;;;;;;16.68;41.97;99542.91;4151304;34;34918;-80
2023/05/01 05:16:16;;;;;;;;;;;;;;;16.86;43.48;99538.84;4151620;34;34133;-81
2023/05/01 05:18:44;;;;;;;;;;;;;;;17.46;41.55;99543.84;4163312;34;35019;-81
2023/05/01 05:21:12;;;;;;;;;;;;;;;16.56;44.54;99543.31;4157047;34;230722;-81
2023/05/01 05:23:40;;;;;;;;;;;;;;;16.78;43.88;99543.47;4164535;34;34722;-80
2023/05/01 05:26:08;;;;;;;;;;;;;;;17.11;42.84;99549.41;4164332;34;34318;-82
2023/05/01 05:28:36;;;;;;;;;;;;;;;17.13;41.44;99552.84;4164565;34;34303;-79
2023/05/01 05:31:04;;;;;;;;;;;;;;;16.16;42.72;99548.03;4164567;34;35461;-80
2023/05/01 05:33:32;;;;;;;;;;;;;;;16.71;42.08;99542.78;4164196;34;34798;-81
2023/05/01 05:36:00;;;;;;;;;;;;;;;16.26;45.66;99549.47;4151730;34;33735;-80
2023/05/01 05:38:28;;;;;;;;;;;;;;;16.58;42.24;99549.38;4152339;34;35022;-80
2023/05/01 05:40:58;;;;;;;;;;;;;;;17.19;41.83;99551.78;4164351;34;35335;-78
2023/05/01 05:43:26;;;;;;;;;;;;;;;16.69;43.96;99547.25;4164374;34;34777;-81
2023/05/01 05:45:55;;;;;;;;;;;;;;;17.51;39.49;99566.44;4164384;34;33515;-81
2023/05/01 05:48:24;;;;;;;;;;;;;;;17.43;38.45;99552.69;4162953;34;32739;-81
2023/05/01 05:50:52;;;;;;;;;;;;;;;17.32;40.32;99568.84;4163976;34;36128;-80
2023/05/01 05:53:20;;;;;;;;;;;;;;;17.19;41.17;99565.78;4163935;34;35441;-80
2023/05/01 05:55:50;;;;;;;;;;;;;;;17.34;40.67;99563.53;4164285;34;34149;-80
2023/05/01 05:58:19;;;;;;;;;;;;;;;16.82;41.52;99559.09;4163949;34;34303;-81
2023/05/01 06:00:48;;;;;;;;;;;;;;;16.64;42.39;99567.56;4151641;34;36258;-82
2023/05/01 06:03:18;;;;;;;;;;;;;;;16.70;41.46;99558.66;4152252;34;34069;-83
2023/05/01 06:05:46;;;;;;;;;;;;;;;17.02;40.17;99560.25;4151817;34;33551;-82
2023/05/01 06:08:14;;;;;;;;;;;;;;;17.38;39.69;99563.41;4151673;34;34990;-81
2023/05/01 06:10:42;;;;;;;;;;;;;;;17.19;42.20;99578.09;4151523;34;35399;-81
2023/05/01 06:13:11;;;;;;;;;;;;;;;16.58;41.50;99566.00;4151641;34;35432;-77
2023/05/01 06:15:42;;;;;;;;;;;;;;;17.94;39.89;99562.25;4163765;34;34169;-80
2023/05/01 06:18:10;;;;;;;;;;;;;;;17.62;41.55;99566.06;4163866;34;35016;-80
2023/05/01 06:20:38;;;;;;;;;;;;;;;17.86;41.58;99572.25;4163463;34;35322;-80
2023/05/01 06:23:08;;;;;;;;;;;;;;;17.93;40.97;99560.56;4153432;34;34717;-80
2023/05/01 06:25:37;;;;;;;;;;;;;;;17.50;42.26;99569.97;4166039;34;33565;-79
2023/05/01 06:28:05;;;;;;;;;;;;;;;17.68;43.30;99573.72;4165741;34;34328;-80
2023/05/01 06:30:33;;;;;;;;;;;;;;;18.50;40.41;99568.06;4165823;34;36208;-80
2023/05/01 06:33:01;;;;;;;;;;;;;;;18.37;37.33;99580.84;4153530;34;34586;-81
2023/05/01 06:35:29;;;;;;;;;;;;;;;18.77;37.90;99577.47;4165957;34;33496;-80
2023/05/01 06:37:59;;;;;;;;;;;;;;;19.61;36.46;99571.38;4165554;34;34096;-81
2023/05/01 06:40:26;;;;;;;;;;;;;;;19.38;36.28;99575.88;4165551;34;36161;-80
2023/05/01 06:42:54;;;;;;;;;;;;;;;18.87;34.66;99579.78;4165782;34;34789;-82
2023/05/01 06:45:26;;;;;;;;;;;;;;;19.05;35.23;99584.28;4165739;34;33157;-80
2023/05/01 06:47:54;;;;;;;;;;;;;;;19.76;34.36;99576.00;4153200;34;34346;-79
2023/05/01 06:50:22;;;;;;;;;;;;;;;20.08;33.47;99566.63;4165409;34;36154;-79
2023/05/01 06:52:50;;;;;;;;;;;;;;;19.30;35.33;99570.06;4165628;34;34798;-80
2023/05/01 06:55:18;;;;;;;;;;;;;;;19.73;33.82;99573.47;4165365;34;34182;-79
2023/05/01 06:57:46;;;;;;;;;;;;;;;18.81;37.12;99577.34;4165408;34;35011;-80
2023/05/01 07:00:15;;;;;;;;;;;;;;;19.93;33.11;99571.75;4165213;34;35326;-81
2023/05/01 07:02:44;;;;;;;;;;;;;;;20.09;32.13;99578.03;4165361;34;34972;-81
2023/05/01 07:05:12;;;;;;;;;;;;;;;19.47;31.19;99570.19;4165341;34;33569;-80
2023/05/01 07:07:39;;;;;;;;;;;;;;;19.15;35.83;99582.13;4153163;34;34100;-83
2023/05/01 07:10:16;;;;;;;;;;;;;;;20.22;31.93;99573.91;4165297;34;35358;-80
2023/05/01 07:12:45;;;;;;;;;;;;;;;20.42;29.84;99572.97;4165285;34;34770;-81
2023/05/01 07:15:15;;;;;;;;;;;;;;;20.30;30.29;99580.63;4165271;34;33160;-82
2023/05/01 07:17:44;;;;;;;;;;;;;;;20.35;30.17;99575.97;4165609;34;33406;-80
2023/05/01 07:20:12;;;;;;;;;;;;;;;21.05;31.29;99578.78;4165076;34;36122;-79
2023/05/01 07:22:40;;;;;;;;;;;;;;;20.95;33.56;99573.94;4165293;34;34818;-78
2023/05/01 07:25:08;;;;;;;;;;;;;;;19.96;33.00;99582.16;4165172;34;33508;-81
2023/05/01 07:27:36;;;;;;;;;;;;;;;21.07;29.98;99583.06;4165284;34;34303;-81
2023/05/01 07:30:04;;;;;;;;;;;;;;;21.68;28.85;99580.88;4152970;34;35232;-83
2023/05/01 07:32:32;;;;;;;;;;;;;;;21.38;28.89;99579.72;4164735;34;35678;-81
2023/05/01 07:35:00;;;;;;;;;;;;;;;21.52;29.48;99579.03;4163609;34;31812;-82
2023/05/01 07:37:28;;;;;;;;;;;;;;;21.37;28.53;99585.06;4165289;34;35116;-82
2023/05/01 07:39:57;;;;;;;;;;;;;;;22.38;26.19;99580.66;4165244;34;36162;-82
2023/05/01 07:42:26;;;;;;;;;;;;;;;21.35;28.22;99592.25;4165211;34;35645;-77
2023/05/01 07:44:53;;;;;;;;;;;;;;;21.68;26.25;99586.19;4165144;34;33318;-83
2023/05/01 07:47:21;;;;;;;;;;;;;;;21.60;27.51;99591.91;4165101;34;35055;-79
2023/05/01 07:49:49;;;;;;;;;;;;;;;21.69;27.47;99594.06;4165120;34;35127;-80
2023/05/01 07:52:17;;;;;;;;;;;;;;;22.57;25.63;99580.50;4165118;34;34598;-80
2023/05/01 07:54:48;;;;;;;;;;;;;;;22.63;25.47;99588.13;4165167;34;33449;-80
2023/05/01 07:57:16;;;;;;;;;;;;;;;23.07;25.59;99587.38;4165181;34;34212;-80
2023/05/01 07:59:44;;;;;;;;;;;;;;;22.63;25.30;99588.13;4164927;34;34922;-81
2023/05/01 08:02:12;;;;;;;;;;;;;;;22.99;25.17;99592.25;4165026;34;34903;-81
2023/05/01 08:04:41;;;;;;;;;;;;;;;23.10;24.52;99587.19;4165062;34;34257;-79
2023/05/01 08:07:08;;;;;;;;;;;;;;;21.16;28.88;99581.72;4163894;34;32460;-83
2023/05/01 08:09:36;;;;;;;;;;;;;;;22.39;26.24;99591.19;4165225;34;36078;-81
2023/05/01 08:12:04;;;;;;;;;;;;;;;22.76;25.21;99589.13;4165019;34;34777;-77
2023/05/01 08:14:32;;;;;;;;;;;;;;;22.75;26.14;99584.78;4165193;34;33181;-79
2023/05/01 08:17:00;;;;;;;;;;;;;;;22.07;26.34;99593.78;4163880;34;33989;-78
2023/05/01 08:19:28;;;;;;;;;;;;;;;22.37;25.16;99593.06;4164965;34;36172;-82
2023/05/01 08:21:55;;;;;;;;;;;;;;;22.34;25.66;99593.25;4164805;34;34627;-80
2023/05/01 08:24:23;;;;;;;;;;;;;;;22.20;27.28;99591.34;4164966;34;34303;-78
2023/05/01 08:26:51;;;;;;;;;;;;;;;23.38;25.07;99586.41;4163684;34;33488;-78
2023/05/01 08:29:19;;;;;;;;;;;;;;;23.01;26.89;99582.37;4164866;34;35419;-78
2023/05/01 08:31:47;;;;;;;;;;;;;;;22.93;25.44;99589.97;4164831;34;34658;-79
2023/05/01 08:34:16;;;;;;;;;;;;;;;23.23;27.63;99593.50;4164834;34;34135;-78
2023/05/01 08:36:43;;;;;;;;;;;;;;;22.28;27.58;99594.44;4164851;34;34221;-77
2023/05/01 08:39:11;;;;;;;;;;;;;;;22.45;25.23;99590.88;4164803;34;36122;-78
2023/05/01 08:41:39;;;;;;;;;;;;;;;23.10;26.57;99584.53;4164718;34;35541;-76
2023/05/01 08:44:08;;;;;;;;;;;;;;;23.52;24.52;99582.91;4152184;34;33179;-76
2023/05/01 08:46:59;;;;;;;;;;;;;;;23.50;24.88;99581.31;4152557;34;34207;-82
2023/05/01 08:49:27;;;;;;;;;;;;;;;22.87;26.00;99576.09;4159530;34;35001;-74
2023/05/01 08:51:55;;;;;;;;;;;;;;;23.71;25.87;99587.97;4164699;34;35512;-76
2023/05/01 08:54:23;;;;;;;;;;;;;;;23.72;26.50;99589.72;4152554;34;33717;-80
2023/05/01 08:56:51;;;;;;;;;;;;;;;24.12;24.12;99581.91;4164628;34;34204;-78
2023/05/01 08:59:19;;;;;;;;;;;;;;;23.09;27.65;99588.16;4152332;34;35049;-80
2023/05/01 09:01:47;;;;;;;;;;;;;;;23.25;26.95;99586.28;4164908;34;34573;-83
2023/05/01 09:04:15;;;;;;;;;;;;;;;23.83;25.92;99583.75;4164827;34;33568;-82
2023/05/01 09:06:43;;;;;;;;;;;;;;;23.06;29.41;99588.31;4152374;34;34495;-82
2023/05/01 09:09:11;;;;;;;;;;;;;;;23.64;25.90;99587.50;4164420;34;35222;-81
2023/05/01 09:11:39;;;;;;;;;;;;;;;24.46;23.74;99582.44;4164640;34;34707;-81
2023/05/01 09:14:08;;;;;;;;;;;;;;;24.49;24.23;99579.56;4164526;34;34033;-83
2023/05/01 09:16:35;;;;;;;;;;;;;;;23.76;24.74;99580.59;4164504;34;35058;-80
2023/05/01 09:19:03;;;;;;;;;;;;;;;23.90;24.93;99577.09;4152370;34;35320;-84
2023/05/01 09:21:31;;;;;;;;;;;;;;;23.75;25.87;99572.69;4164257;34;34856;-83
2023/05/01 09:23:59;;;;;;;;;;;;;;;24.18;24.56;99578.03;4164407;34;34335;-82
2023/05/01 09:26:27;;;;;;;;;;;;;;;24.31;25.98;99576.28;4164411;34;35188;-82
2023/05/01 09:28:57;;;;;;;;;;;;;;;23.72;26.73;99581.72;4152178;34;35020;-82
2023/05/01 09:31:28;;;;;;;;;;;;;;;23.08;29.78;99581.13;4164382;34;35352;-85
2023/05/01 09:34:03;;;;;;;;;;;;;;;23.62;25.19;99578.75;4164290;34;34220;-83
2023/05/01 09:36:35;;;;;;;;;;;;;;;23.40;25.19;99573.03;4152204;34;35022;-82
2023/05/01 09:39:03;;;;;;;;;;;;;;;23.18;26.68;99569.00;4152095;34;36164;-83
2023/05/01 09:41:32;;;;;;;;;;;;;;;24.73;24.67;99569.16;4151876;34;35041;-81
2023/05/01 09:44:00;;;;;;;;;;;;;;;24.29;29.33;99556.91;4164240;34;33728;-83
2023/05/01 09:46:28;;;;;;;;;;;;;;;24.12;27.30;99559.78;4151988;34;34233;-82
2023/05/01 09:48:57;;;;;;;;;;;;;;;24.10;28.14;99565.19;4150481;34;35359;-84
2023/05/01 09:51:31;;;;;;;;;;;;;;;25.47;24.03;99561.56;4149863;34;34854;-75
2023/05/01 09:54:01;;;;;;;;;;;;;;;24.34;26.05;99552.16;4138336;34;33166;-83
2023/05/01 09:56:31;;;;;;;;;;;;;;;24.12;30.36;99562.44;4150634;34;35040;-84
2023/05/01 09:59:18;;;;;;;;;;;;;;;25.17;24.41;99562.69;4150758;34;34480;-84
2023/05/01 10:01:50;;;;;;;;;;;;;;;24.85;23.87;99558.66;4140140;34;34483;-83
2023/05/01 10:04:28;;;;;;;;;;;;;;;24.55;24.78;99549.94;4152300;34;34094;-86
2023/05/01 10:06:55;;;;;;;;;;;;;;;24.82;24.11;99543.72;4140021;34;32579;-83
2023/05/01 10:09:27;;;;;;;;;;;;;;;24.72;23.74;99547.97;4139980;34;34595;-76
2023/05/01 10:11:56;;;;;;;;;;;;;;;24.68;23.52;99541.97;4128896;34;33117;-82
2023/05/01 10:14:26;;;;;;;;;;;;;;;25.15;23.51;99543.28;4151080;34;34068;-79
2023/05/01 10:16:56;;;;;;;;;;;;;;;24.29;26.59;99540.09;4152100;34;34729;-75
2023/05/01 10:19:24;;;;;;;;;;;;;;;25.57;23.53;99534.25;4152143;34;35360;-81
2023/05/01 10:21:52;;;;;;;;;;;;;;;24.52;24.61;99536.78;4150966;34;34806;-75
2023/05/01 10:24:20;;;;;;;;;;;;;;;25.31;24.34;99535.13;4152099;34;33523;-83
2023/05/01 10:26:48;;;;;;;;;;;;;;;25.93;23.83;99533.47;4151973;34;35153;-82
2023/05/01 10:29:16;;;;;;;;;;;;;;;25.70;22.78;99532.44;4152025;34;35191;-83
2023/05/01 10:31:43;;;;;;;;;;;;;;;24.84;24.82;99522.34;4152011;34;34826;-81
2023/05/01 10:34:14;;;;;;;;;;;;;;;24.76;25.14;99523.69;4152025;34;33636;-79
2023/05/01 10:36:46;;;;;;;;;;;;;;;25.50;24.47;99524.03;4140019;34;34348;-81
2023/05/01 10:39:40;;;;;;;;;;;;;;;26.52;22.14;99516.75;4139843;34;35449;-80
2023/05/01 10:42:15;;;;;;;;;;;;;;;26.21;23.89;99524.38;4150871;34;34524;-83
2023/05/01 10:44:46;;;;;;;;;;;;;;;26.35;22.69;99510.00;4150935;34;32683;-75
2023/05/01 10:47:23;;;;;;;;;;;;;;;25.09;25.00;99527.69;4151967;34;35118;-80
2023/05/01 10:50:07;;;;;;;;;;;;;;;25.02;26.29;99517.56;4151081;34;34817;-81
2023/05/01 10:52:53;;;;;;;;;;;;;;;26.81;22.21;99511.94;4151981;34;34874;-80
2023/05/01 10:55:33;;;;;;;;;;;;;;;25.89;24.79;99513.31;4151993;34;33308;-81
2023/05/01 10:58:01;;;;;;;;;;;;;;;25.70;26.53;99513.78;4152251;34;34105;-83
2023/05/01 11:00:29;;;;;;;;;;;;;;;26.11;23.95;99515.31;4151986;34;35125;-75
2023/05/01 11:03:16;;;;;;;;;;;;;;;26.06;24.17;99520.13;4151866;34;34702;-80
2023/05/01 11:05:59;;;;;;;;;;;;;;;26.84;23.27;99509.06;4151812;34;33431;-82
2023/05/01 11:08:28;;;;;;;;;;;;;;;25.91;26.14;99509.56;4154008;34;34256;-75
2023/05/01 11:10:56;;;;;;;;;;;;;;;26.36;29.11;99505.50;4151505;34;36344;-84
2023/05/01 11:13:42;;;;;;;;;;;;;;;26.82;22.45;99510.12;4151779;34;34595;-83
2023/05/01 11:16:29;;;;;;;;;;;;;;;26.38;26.18;99492.91;4151946;34;34239;-82
2023/05/01 11:18:57;;;;;;;;;;;;;;;27.96;23.27;99504.00;4151784;34;35201;-83
2023/05/01 11:21:32;;;;;;;;;;;;;;;26.88;24.94;99507.00;4163994;34;36296;-88
2023/05/01 11:24:00;;;;;;;;;;;;;;;27.23;26.12;99495.38;4164049;34;34630;-87
2023/05/01 11:26:28;;;;;;;;;;;;;;;26.93;25.15;99487.91;4155901;34;34418;-92
2023/05/01 11:28:59;;;;;;;;;;;;;;;27.33;23.53;99485.72;4156190;34;36073;-82
2023/05/01 11:31:27;;;;;;;;;;;;;;;25.50;26.98;99478.72;4170896;34;35270;-84
2023/05/01 11:33:56;;;;;;;;;;;;;;;25.76;26.18;99486.66;4164031;34;35439;-79
2023/05/01 11:36:24;;;;;;;;;;;;;;;25.06;27.06;99476.41;4165660;34;33296;-75
2023/05/01 11:39:00;;;;;;;;;;;;;;;24.04;30.38;99467.19;4165199;34;34243;-81
2023/05/01 11:41:28;;;;;;;;;;;;;;;23.53;30.41;99464.19;4155087;34;36189;-82
2023/05/01 11:43:57;;;;;;;;;;;;;;;23.53;30.93;99473.00;4150481;34;35603;-80
2023/05/01 11:46:31;;;;;;;;;;;;;;;24.67;27.32;99475.50;4150504;34;34184;-75
2023/05/01 11:49:00;;;;;;;;;;;;;;;25.46;25.81;99471.03;4151821;34;35061;-78
2023/05/01 11:51:28;;;;;;;;;;;;;;;25.23;25.52;99472.59;4158402;34;35407;-75
2023/05/01 11:54:05;;;;;;;;;;;;;;;25.68;28.76;99470.38;4164968;34;34454;-80
2023/05/01 11:56:33;;;;;;;;;;;;;;;25.26;25.61;99467.09;4165192;34;33362;-74
2023/05/01 11:59:16;;;;;;;;;;;;;;;25.45;25.21;99466.63;4165017;34;34380;-77
2023/05/01 12:01:45;;;;;;;;;;;;;;;25.28;25.96;99463.34;4165034;34;35324;-75
2023/05/01 12:04:22;;;;;;;;;;;;;;;25.39;24.93;99462.59;4151759;34;35648;-76
2023/05/01 12:06:50;;;;;;;;;;;;;;;25.09;25.89;99455.75;4150524;34;33484;-78
2023/05/01 12:09:19;;;;;;;;;;;;;;;25.05;25.37;99459.59;4151497;34;34341;-77
2023/05/01 12:11:47;;;;;;;;;;;;;;;25.14;25.94;99450.09;4150309;34;35196;-80
2023/05/01 12:14:19;;;;;;;;;;;;;;;24.96;26.85;99449.56;4164930;34;34067;-74
2023/05/01 12:16:46;;;;;;;;;;;;;;;24.97;27.92;99445.94;4161257;34;33406;-75
2023/05/01 12:19:14;;;;;;;;;;;;;;;24.27;31.52;99447.06;4161574;34;34829;-77
2023/05/01 12:21:42;;;;;;;;;;;;;;;25.14;26.38;99447.44;4159737;34;34962;-75
2023/05/01 12:24:11;;;;;;;;;;;;;;;25.74;25.74;99451.25;4163813;34;35456;-75
2023/05/01 12:26:39;;;;;;;;;;;;;;;24.95;26.78;99445.19;4163897;34;34158;-75
2023/05/01 12:29:07;;;;;;;;;;;;;;;24.85;27.03;99433.47;4164955;34;34134;-77
2023/05/01 12:31:36;;;;;;;;;;;;;;;24.90;25.95;99426.88;4164808;34;35434;-74
2023/05/01 12:34:05;;;;;;;;;;;;;;;25.32;28.97;99430.19;4163516;34;34607;-85
2023/05/01 12:36:34;;;;;;;;;;;;;;;25.03;29.04;99429.53;4150235;34;34152;-76
2023/05/01 12:39:03;;;;;;;;;;;;;;;25.10;26.56;99430.81;4158645;34;35018;-85
2023/05/01 12:41:37;;;;;;;;;;;;;;;24.98;25.88;99426.34;4151246;34;35433;-84
2023/05/01 12:44:24;;;;;;;;;;;;;;;24.65;27.47;99414.37;4150096;34;34114;-77
2023/05/01 12:47:01;;;;;;;;;;;;;;;24.57;27.77;99416.72;4158288;34;34069;-76
2023/05/01 12:49:30;;;;;;;;;;;;;;;25.04;26.46;99417.91;4164821;34;35077;-81
2023/05/01 12:51:59;;;;;;;;;;;;;;;24.80;26.29;99417.81;4164769;34;35126;-78
2023/05/01 12:54:28;;;;;;;;;;;;;;;25.01;26.73;99415.47;4163623;34;34591;-88
2023/05/01 12:57:13;;;;;;;;;;;;;;;25.01;27.02;99410.16;4156003;34;34224;-79
2023/05/01 12:59:42;;;;;;;;;;;;;;;24.02;26.71;99411.41;4150044;34;34846;-85